sensor_id;sensor_type;location;lat;lon;timestamp;P1;durP1;ratioP1;P2;durP2;ratioP2
74626;SDS011;63132;52.268;5.192;2022-09-09T00:00:20;5.88;;;1.70;;
74626;SDS011;63132;52.268;5.192;2022-09-09T00:02:52;5.32;;;1.80;;
74626;SDS011;63132;52.268;5.192;2022-09-09T00:07:58;5.00;;;1.95;;
74626;SDS011;63132;52.268;5.192;2022-09-09T00:10:39;3.78;;;1.80;;
74626;SDS011;63132;52.268;5.192;2022-09-09T00:13:16;5.95;;;1.70;;
74626;SDS011;63132;52.268;5.192;2022-09-09T00:15:57;5.75;;;1.83;;
74626;SDS011;63132;52.268;5.192;2022-09-09T00:18:36;4.95;;;2.05;;
74626;SDS011;63132;52.268;5.192;2022-09-09T00:21:15;5.10;;;1.90;;
74626;SDS011;63132;52.268;5.192;2022-09-09T00:23:52;6.43;;;1.95;;
74626;SDS011;63132;52.268;5.192;2022-09-09T00:29:10;5.53;;;2.00;;
74626;SDS011;63132;52.268;5.192;2022-09-09T00:31:39;7.43;;;1.92;;
74626;SDS011;63132;52.268;5.192;2022-09-09T00:36:42;5.13;;;2.30;;
74626;SDS011;63132;52.268;5.192;2022-09-09T00:39:57;7.38;;;2.40;;
74626;SDS011;63132;52.268;5.192;2022-09-09T00:42:26;3.97;;;2.30;;
74626;SDS011;63132;52.268;5.192;2022-09-09T00:44:59;6.50;;;2.60;;
74626;SDS011;63132;52.268;5.192;2022-09-09T00:50:15;5.90;;;2.70;;
74626;SDS011;63132;52.268;5.192;2022-09-09T00:56:24;6.27;;;2.80;;
74626;SDS011;63132;52.268;5.192;2022-09-09T01:01:43;9.32;;;3.47;;
74626;SDS011;63132;52.268;5.192;2022-09-09T01:04:10;7.65;;;3.20;;
74626;SDS011;63132;52.268;5.192;2022-09-09T01:06:41;7.85;;;3.85;;
74626;SDS011;63132;52.268;5.192;2022-09-09T01:12:11;7.35;;;3.30;;
74626;SDS011;63132;52.268;5.192;2022-09-09T01:14:53;8.13;;;3.70;;
74626;SDS011;63132;52.268;5.192;2022-09-09T01:17:32;7.60;;;3.63;;
74626;SDS011;63132;52.268;5.192;2022-09-09T01:22:36;6.60;;;3.83;;
74626;SDS011;63132;52.268;5.192;2022-09-09T01:25:28;9.13;;;4.03;;
74626;SDS011;63132;52.268;5.192;2022-09-09T01:28:22;9.57;;;4.40;;
74626;SDS011;63132;52.268;5.192;2022-09-09T01:30:51;8.80;;;4.80;;
74626;SDS011;63132;52.268;5.192;2022-09-09T01:33:18;10.38;;;4.90;;
74626;SDS011;63132;52.268;5.192;2022-09-09T01:35:48;8.13;;;5.00;;
74626;SDS011;63132;52.268;5.192;2022-09-09T01:38:36;11.98;;;5.15;;
74626;SDS011;63132;52.268;5.192;2022-09-09T01:41:02;10.88;;;5.78;;
74626;SDS011;63132;52.268;5.192;2022-09-09T01:43:27;11.77;;;5.68;;
74626;SDS011;63132;52.268;5.192;2022-09-09T01:45:54;12.30;;;5.63;;
74626;SDS011;63132;52.268;5.192;2022-09-09T01:48:21;10.98;;;5.65;;
74626;SDS011;63132;52.268;5.192;2022-09-09T01:50:48;10.10;;;5.60;;
74626;SDS011;63132;52.268;5.192;2022-09-09T01:53:15;11.70;;;6.35;;
74626;SDS011;63132;52.268;5.192;2022-09-09T01:55:47;12.40;;;5.68;;
74626;SDS011;63132;52.268;5.192;2022-09-09T02:04:03;11.32;;;6.00;;
74626;SDS011;63132;52.268;5.192;2022-09-09T02:06:43;13.77;;;6.55;;
74626;SDS011;63132;52.268;5.192;2022-09-09T02:09:11;13.82;;;6.63;;
74626;SDS011;63132;52.268;5.192;2022-09-09T02:11:40;17.38;;;7.30;;
74626;SDS011;63132;52.268;5.192;2022-09-09T02:14:14;13.95;;;6.43;;
74626;SDS011;63132;52.268;5.192;2022-09-09T02:16:49;12.70;;;6.35;;
74626;SDS011;63132;52.268;5.192;2022-09-09T02:21:50;13.80;;;7.60;;
74626;SDS011;63132;52.268;5.192;2022-09-09T02:24:19;13.03;;;6.90;;
74626;SDS011;63132;52.268;5.192;2022-09-09T02:26:47;13.82;;;7.28;;
74626;SDS011;63132;52.268;5.192;2022-09-09T02:29:22;11.98;;;7.75;;
74626;SDS011;63132;52.268;5.192;2022-09-09T02:31:51;13.65;;;7.60;;
74626;SDS011;63132;52.268;5.192;2022-09-09T02:34:20;14.30;;;7.72;;
74626;SDS011;63132;52.268;5.192;2022-09-09T02:36:49;14.20;;;7.85;;
74626;SDS011;63132;52.268;5.192;2022-09-09T02:39:18;13.95;;;8.63;;
74626;SDS011;63132;52.268;5.192;2022-09-09T02:41:44;16.58;;;8.68;;
74626;SDS011;63132;52.268;5.192;2022-09-09T02:44:10;16.67;;;8.40;;
74626;SDS011;63132;52.268;5.192;2022-09-09T02:46:45;13.93;;;8.38;;
74626;SDS011;63132;52.268;5.192;2022-09-09T02:49:45;13.07;;;8.55;;
74626;SDS011;63132;52.268;5.192;2022-09-09T02:52:13;14.50;;;8.70;;
74626;SDS011;63132;52.268;5.192;2022-09-09T02:54:41;18.77;;;9.43;;
74626;SDS011;63132;52.268;5.192;2022-09-09T02:59:46;16.33;;;9.20;;
74626;SDS011;63132;52.268;5.192;2022-09-09T03:02:12;17.92;;;10.02;;
74626;SDS011;63132;52.268;5.192;2022-09-09T03:04:38;16.83;;;9.93;;
74626;SDS011;63132;52.268;5.192;2022-09-09T03:07:04;15.43;;;10.25;;
74626;SDS011;63132;52.268;5.192;2022-09-09T03:09:30;14.90;;;9.50;;
74626;SDS011;63132;52.268;5.192;2022-09-09T03:11:56;15.77;;;9.55;;
74626;SDS011;63132;52.268;5.192;2022-09-09T03:14:22;17.50;;;10.30;;
74626;SDS011;63132;52.268;5.192;2022-09-09T03:16:50;15.70;;;10.32;;
74626;SDS011;63132;52.268;5.192;2022-09-09T03:19:16;16.20;;;9.70;;
74626;SDS011;63132;52.268;5.192;2022-09-09T03:21:43;18.08;;;9.68;;
74626;SDS011;63132;52.268;5.192;2022-09-09T03:24:09;16.52;;;9.55;;
74626;SDS011;63132;52.268;5.192;2022-09-09T03:26:34;19.03;;;9.47;;
74626;SDS011;63132;52.268;5.192;2022-09-09T03:29:00;15.80;;;9.70;;
74626;SDS011;63132;52.268;5.192;2022-09-09T03:31:26;14.47;;;8.87;;
74626;SDS011;63132;52.268;5.192;2022-09-09T03:33:55;15.87;;;9.90;;
74626;SDS011;63132;52.268;5.192;2022-09-09T03:36:21;17.70;;;10.00;;
74626;SDS011;63132;52.268;5.192;2022-09-09T03:38:46;14.67;;;9.80;;
74626;SDS011;63132;52.268;5.192;2022-09-09T03:41:12;15.33;;;9.80;;
74626;SDS011;63132;52.268;5.192;2022-09-09T03:43:37;15.85;;;9.65;;
74626;SDS011;63132;52.268;5.192;2022-09-09T03:46:03;14.65;;;8.93;;
74626;SDS011;63132;52.268;5.192;2022-09-09T03:48:28;14.13;;;8.93;;
74626;SDS011;63132;52.268;5.192;2022-09-09T03:50:54;15.93;;;9.80;;
74626;SDS011;63132;52.268;5.192;2022-09-09T03:53:25;18.48;;;10.15;;
74626;SDS011;63132;52.268;5.192;2022-09-09T03:55:51;15.20;;;9.50;;
74626;SDS011;63132;52.268;5.192;2022-09-09T03:58:19;15.55;;;10.02;;
74626;SDS011;63132;52.268;5.192;2022-09-09T04:00:56;20.23;;;10.02;;
74626;SDS011;63132;52.268;5.192;2022-09-09T04:03:24;20.63;;;10.37;;
74626;SDS011;63132;52.268;5.192;2022-09-09T04:05:52;16.30;;;9.88;;
74626;SDS011;63132;52.268;5.192;2022-09-09T04:08:19;13.88;;;9.30;;
74626;SDS011;63132;52.268;5.192;2022-09-09T04:10:48;15.85;;;9.75;;
74626;SDS011;63132;52.268;5.192;2022-09-09T04:13:15;17.10;;;9.32;;
74626;SDS011;63132;52.268;5.192;2022-09-09T04:15:42;16.77;;;9.75;;
74626;SDS011;63132;52.268;5.192;2022-09-09T04:18:08;15.50;;;9.23;;
74626;SDS011;63132;52.268;5.192;2022-09-09T04:20:34;20.23;;;9.52;;
74626;SDS011;63132;52.268;5.192;2022-09-09T04:23:00;17.23;;;9.30;;
74626;SDS011;63132;52.268;5.192;2022-09-09T04:25:25;14.15;;;8.93;;
74626;SDS011;63132;52.268;5.192;2022-09-09T04:27:54;15.33;;;8.97;;
74626;SDS011;63132;52.268;5.192;2022-09-09T04:30:21;17.45;;;9.10;;
74626;SDS011;63132;52.268;5.192;2022-09-09T04:32:47;17.80;;;9.67;;
74626;SDS011;63132;52.268;5.192;2022-09-09T04:35:12;21.93;;;9.60;;
74626;SDS011;63132;52.268;5.192;2022-09-09T04:37:38;20.17;;;9.70;;
74626;SDS011;63132;52.268;5.192;2022-09-09T04:40:03;14.77;;;8.97;;
74626;SDS011;63132;52.268;5.192;2022-09-09T04:42:30;17.08;;;9.05;;
74626;SDS011;63132;52.268;5.192;2022-09-09T04:44:59;14.60;;;8.23;;
74626;SDS011;63132;52.268;5.192;2022-09-09T04:47:24;16.63;;;8.10;;
74626;SDS011;63132;52.268;5.192;2022-09-09T04:49:50;14.40;;;7.97;;
74626;SDS011;63132;52.268;5.192;2022-09-09T04:52:16;17.13;;;8.95;;
74626;SDS011;63132;52.268;5.192;2022-09-09T04:54:42;14.90;;;7.87;;
74626;SDS011;63132;52.268;5.192;2022-09-09T04:57:07;14.23;;;8.17;;
74626;SDS011;63132;52.268;5.192;2022-09-09T04:59:35;14.55;;;8.15;;
74626;SDS011;63132;52.268;5.192;2022-09-09T05:02:01;14.63;;;8.07;;
74626;SDS011;63132;52.268;5.192;2022-09-09T05:04:27;14.18;;;7.65;;
74626;SDS011;63132;52.268;5.192;2022-09-09T05:06:53;14.70;;;8.00;;
74626;SDS011;63132;52.268;5.192;2022-09-09T05:09:19;15.57;;;7.93;;
74626;SDS011;63132;52.268;5.192;2022-09-09T05:11:44;17.03;;;7.93;;
74626;SDS011;63132;52.268;5.192;2022-09-09T05:14:09;13.65;;;7.28;;
74626;SDS011;63132;52.268;5.192;2022-09-09T05:16:37;11.55;;;7.10;;
74626;SDS011;63132;52.268;5.192;2022-09-09T05:19:02;14.70;;;7.63;;
74626;SDS011;63132;52.268;5.192;2022-09-09T05:21:28;18.08;;;7.60;;
74626;SDS011;63132;52.268;5.192;2022-09-09T05:23:55;16.10;;;7.77;;
74626;SDS011;63132;52.268;5.192;2022-09-09T05:26:21;14.53;;;7.47;;
74626;SDS011;63132;52.268;5.192;2022-09-09T05:28:47;15.65;;;7.20;;
74626;SDS011;63132;52.268;5.192;2022-09-09T05:31:13;16.17;;;7.28;;
74626;SDS011;63132;52.268;5.192;2022-09-09T05:33:41;14.07;;;6.78;;
74626;SDS011;63132;52.268;5.192;2022-09-09T05:36:15;13.68;;;7.57;;
74626;SDS011;63132;52.268;5.192;2022-09-09T05:38:42;18.77;;;7.23;;
74626;SDS011;63132;52.268;5.192;2022-09-09T05:41:09;16.45;;;7.43;;
74626;SDS011;63132;52.268;5.192;2022-09-09T05:43:40;17.30;;;7.43;;
74626;SDS011;63132;52.268;5.192;2022-09-09T05:46:30;17.40;;;7.65;;
74626;SDS011;63132;52.268;5.192;2022-09-09T05:48:55;14.63;;;7.15;;
74626;SDS011;63132;52.268;5.192;2022-09-09T05:51:21;17.42;;;7.00;;
74626;SDS011;63132;52.268;5.192;2022-09-09T05:53:49;14.15;;;6.47;;
74626;SDS011;63132;52.268;5.192;2022-09-09T05:56:19;16.08;;;6.28;;
74626;SDS011;63132;52.268;5.192;2022-09-09T05:58:46;12.82;;;5.95;;
74626;SDS011;63132;52.268;5.192;2022-09-09T06:01:13;13.10;;;6.40;;
74626;SDS011;63132;52.268;5.192;2022-09-09T06:03:47;15.95;;;7.35;;
74626;SDS011;63132;52.268;5.192;2022-09-09T06:06:14;16.77;;;7.38;;
74626;SDS011;63132;52.268;5.192;2022-09-09T06:08:43;16.38;;;7.18;;
74626;SDS011;63132;52.268;5.192;2022-09-09T06:11:11;14.65;;;6.47;;
74626;SDS011;63132;52.268;5.192;2022-09-09T06:13:38;12.68;;;5.88;;
74626;SDS011;63132;52.268;5.192;2022-09-09T06:16:16;13.32;;;5.80;;
74626;SDS011;63132;52.268;5.192;2022-09-09T06:18:43;14.40;;;5.75;;
74626;SDS011;63132;52.268;5.192;2022-09-09T06:21:11;11.90;;;5.75;;
74626;SDS011;63132;52.268;5.192;2022-09-09T06:23:40;13.32;;;5.30;;
74626;SDS011;63132;52.268;5.192;2022-09-09T06:26:06;15.65;;;6.07;;
74626;SDS011;63132;52.268;5.192;2022-09-09T06:28:38;13.53;;;5.60;;
74626;SDS011;63132;52.268;5.192;2022-09-09T06:31:04;14.37;;;5.57;;
74626;SDS011;63132;52.268;5.192;2022-09-09T06:33:32;12.48;;;5.32;;
74626;SDS011;63132;52.268;5.192;2022-09-09T06:36:06;14.05;;;5.40;;
74626;SDS011;63132;52.268;5.192;2022-09-09T06:38:35;11.60;;;4.78;;
74626;SDS011;63132;52.268;5.192;2022-09-09T06:41:01;13.90;;;4.87;;
74626;SDS011;63132;52.268;5.192;2022-09-09T06:43:27;13.77;;;4.85;;
74626;SDS011;63132;52.268;5.192;2022-09-09T06:45:56;13.03;;;4.43;;
74626;SDS011;63132;52.268;5.192;2022-09-09T06:48:24;12.93;;;4.43;;
74626;SDS011;63132;52.268;5.192;2022-09-09T06:51:06;14.45;;;4.00;;
74626;SDS011;63132;52.268;5.192;2022-09-09T06:53:41;14.33;;;3.97;;
74626;SDS011;63132;52.268;5.192;2022-09-09T06:58:34;13.60;;;4.13;;
74626;SDS011;63132;52.268;5.192;2022-09-09T07:01:04;11.40;;;3.53;;
74626;SDS011;63132;52.268;5.192;2022-09-09T07:03:30;11.27;;;4.03;;
74626;SDS011;63132;52.268;5.192;2022-09-09T07:05:56;12.90;;;3.40;;
74626;SDS011;63132;52.268;5.192;2022-09-09T07:08:21;11.10;;;3.70;;
74626;SDS011;63132;52.268;5.192;2022-09-09T07:10:47;10.63;;;3.30;;
74626;SDS011;63132;52.268;5.192;2022-09-09T07:13:13;14.23;;;3.90;;
74626;SDS011;63132;52.268;5.192;2022-09-09T07:15:40;14.85;;;3.80;;
74626;SDS011;63132;52.268;5.192;2022-09-09T07:18:06;11.18;;;3.22;;
74626;SDS011;63132;52.268;5.192;2022-09-09T07:20:32;13.00;;;3.45;;
74626;SDS011;63132;52.268;5.192;2022-09-09T07:22:57;12.27;;;3.35;;
74626;SDS011;63132;52.268;5.192;2022-09-09T07:25:24;11.40;;;3.38;;
74626;SDS011;63132;52.268;5.192;2022-09-09T07:27:52;13.05;;;3.53;;
74626;SDS011;63132;52.268;5.192;2022-09-09T07:30:18;14.63;;;3.30;;
74626;SDS011;63132;52.268;5.192;2022-09-09T07:32:44;11.70;;;3.40;;
74626;SDS011;63132;52.268;5.192;2022-09-09T07:35:09;12.13;;;3.37;;
74626;SDS011;63132;52.268;5.192;2022-09-09T07:37:36;13.00;;;3.30;;
74626;SDS011;63132;52.268;5.192;2022-09-09T07:40:02;14.32;;;3.25;;
74626;SDS011;63132;52.268;5.192;2022-09-09T07:42:28;12.50;;;3.50;;
74626;SDS011;63132;52.268;5.192;2022-09-09T07:44:54;8.97;;;2.87;;
74626;SDS011;63132;52.268;5.192;2022-09-09T07:47:20;11.73;;;3.22;;
74626;SDS011;63132;52.268;5.192;2022-09-09T07:49:46;9.02;;;2.85;;
74626;SDS011;63132;52.268;5.192;2022-09-09T07:52:12;9.10;;;3.13;;
74626;SDS011;63132;52.268;5.192;2022-09-09T07:54:37;11.10;;;3.13;;
74626;SDS011;63132;52.268;5.192;2022-09-09T07:57:03;10.27;;;3.30;;
74626;SDS011;63132;52.268;5.192;2022-09-09T07:59:29;11.18;;;3.53;;
74626;SDS011;63132;52.268;5.192;2022-09-09T08:01:55;11.98;;;3.58;;
74626;SDS011;63132;52.268;5.192;2022-09-09T08:04:20;10.93;;;3.58;;
74626;SDS011;63132;52.268;5.192;2022-09-09T08:06:48;11.50;;;3.22;;
74626;SDS011;63132;52.268;5.192;2022-09-09T08:09:24;12.13;;;3.17;;
74626;SDS011;63132;52.268;5.192;2022-09-09T08:11:53;9.85;;;3.10;;
74626;SDS011;63132;52.268;5.192;2022-09-09T08:14:20;11.70;;;3.35;;
74626;SDS011;63132;52.268;5.192;2022-09-09T08:16:46;9.47;;;2.80;;
74626;SDS011;63132;52.268;5.192;2022-09-09T08:19:13;12.45;;;3.65;;
74626;SDS011;63132;52.268;5.192;2022-09-09T08:21:43;14.15;;;3.28;;
74626;SDS011;63132;52.268;5.192;2022-09-09T08:24:10;11.83;;;3.20;;
74626;SDS011;63132;52.268;5.192;2022-09-09T08:26:37;12.93;;;3.17;;
74626;SDS011;63132;52.268;5.192;2022-09-09T08:29:08;11.77;;;3.40;;
74626;SDS011;63132;52.268;5.192;2022-09-09T08:34:25;16.08;;;3.33;;
74626;SDS011;63132;52.268;5.192;2022-09-09T08:36:52;11.27;;;3.03;;
74626;SDS011;63132;52.268;5.192;2022-09-09T08:39:18;9.77;;;2.97;;
74626;SDS011;63132;52.268;5.192;2022-09-09T08:52:36;11.27;;;2.65;;
74626;SDS011;63132;52.268;5.192;2022-09-09T08:57:55;8.73;;;2.60;;
74626;SDS011;63132;52.268;5.192;2022-09-09T09:00:22;9.77;;;2.60;;
74626;SDS011;63132;52.268;5.192;2022-09-09T09:03:21;10.20;;;2.28;;
74626;SDS011;63132;52.268;5.192;2022-09-09T09:06:08;10.10;;;2.70;;
74626;SDS011;63132;52.268;5.192;2022-09-09T09:09:01;13.70;;;2.88;;
74626;SDS011;63132;52.268;5.192;2022-09-09T09:11:35;9.30;;;3.10;;
74626;SDS011;63132;52.268;5.192;2022-09-09T09:14:13;11.75;;;2.72;;
74626;SDS011;63132;52.268;5.192;2022-09-09T09:19:29;9.60;;;2.80;;
74626;SDS011;63132;52.268;5.192;2022-09-09T09:21:59;10.93;;;2.50;;
74626;SDS011;63132;52.268;5.192;2022-09-09T09:24:40;11.15;;;2.67;;
74626;SDS011;63132;52.268;5.192;2022-09-09T09:27:18;10.73;;;2.75;;
74626;SDS011;63132;52.268;5.192;2022-09-09T09:29:46;13.00;;;2.60;;
74626;SDS011;63132;52.268;5.192;2022-09-09T09:32:16;10.98;;;2.72;;
74626;SDS011;63132;52.268;5.192;2022-09-09T09:34:49;11.63;;;2.40;;
74626;SDS011;63132;52.268;5.192;2022-09-09T09:37:25;12.25;;;2.70;;
74626;SDS011;63132;52.268;5.192;2022-09-09T09:39:54;15.45;;;2.60;;
74626;SDS011;63132;52.268;5.192;2022-09-09T09:42:20;9.07;;;2.45;;
74626;SDS011;63132;52.268;5.192;2022-09-09T09:44:45;11.18;;;2.58;;
74626;SDS011;63132;52.268;5.192;2022-09-09T09:47:12;11.38;;;2.58;;
74626;SDS011;63132;52.268;5.192;2022-09-09T09:49:39;11.43;;;2.85;;
74626;SDS011;63132;52.268;5.192;2022-09-09T09:52:17;9.82;;;2.53;;
74626;SDS011;63132;52.268;5.192;2022-09-09T09:54:48;10.40;;;2.63;;
74626;SDS011;63132;52.268;5.192;2022-09-09T09:57:15;11.23;;;2.35;;
74626;SDS011;63132;52.268;5.192;2022-09-09T09:59:43;14.02;;;3.03;;
74626;SDS011;63132;52.268;5.192;2022-09-09T10:02:42;10.25;;;2.90;;
74626;SDS011;63132;52.268;5.192;2022-09-09T10:05:22;9.82;;;2.60;;
74626;SDS011;63132;52.268;5.192;2022-09-09T10:14:14;10.93;;;2.50;;
74626;SDS011;63132;52.268;5.192;2022-09-09T10:20:11;8.07;;;2.43;;
74626;SDS011;63132;52.268;5.192;2022-09-09T10:22:59;9.60;;;2.47;;
74626;SDS011;63132;52.268;5.192;2022-09-09T10:36:48;11.43;;;2.70;;
74626;SDS011;63132;52.268;5.192;2022-09-09T10:42:02;11.82;;;2.78;;
74626;SDS011;63132;52.268;5.192;2022-09-09T10:47:29;14.50;;;3.38;;
74626;SDS011;63132;52.268;5.192;2022-09-09T10:55:19;11.48;;;3.10;;
74626;SDS011;63132;52.268;5.192;2022-09-09T10:57:50;10.95;;;2.80;;
74626;SDS011;63132;52.268;5.192;2022-09-09T11:00:26;12.87;;;2.67;;
74626;SDS011;63132;52.268;5.192;2022-09-09T11:02:56;10.27;;;2.97;;
74626;SDS011;63132;52.268;5.192;2022-09-09T11:05:26;9.90;;;2.72;;
74626;SDS011;63132;52.268;5.192;2022-09-09T11:08:02;9.75;;;2.50;;
74626;SDS011;63132;52.268;5.192;2022-09-09T11:10:45;10.75;;;3.05;;
74626;SDS011;63132;52.268;5.192;2022-09-09T11:16:19;10.57;;;2.67;;
74626;SDS011;63132;52.268;5.192;2022-09-09T11:18:49;10.98;;;2.63;;
74626;SDS011;63132;52.268;5.192;2022-09-09T11:21:22;6.43;;;2.00;;
74626;SDS011;63132;52.268;5.192;2022-09-09T11:23:53;10.02;;;2.67;;
74626;SDS011;63132;52.268;5.192;2022-09-09T11:26:32;7.13;;;2.17;;
74626;SDS011;63132;52.268;5.192;2022-09-09T11:31:46;8.85;;;2.30;;
74626;SDS011;63132;52.268;5.192;2022-09-09T11:34:31;8.95;;;2.25;;
74626;SDS011;63132;52.268;5.192;2022-09-09T11:37:08;8.05;;;1.95;;
74626;SDS011;63132;52.268;5.192;2022-09-09T11:42:41;7.57;;;2.60;;
74626;SDS011;63132;52.268;5.192;2022-09-09T11:45:15;7.45;;;2.15;;
74626;SDS011;63132;52.268;5.192;2022-09-09T11:47:57;5.43;;;1.98;;
74626;SDS011;63132;52.268;5.192;2022-09-09T11:52:50;10.37;;;2.40;;
74626;SDS011;63132;52.268;5.192;2022-09-09T12:06:17;11.45;;;2.30;;
74626;SDS011;63132;52.268;5.192;2022-09-09T12:08:57;8.23;;;2.33;;
74626;SDS011;63132;52.268;5.192;2022-09-09T12:11:33;8.43;;;2.20;;
74626;SDS011;63132;52.268;5.192;2022-09-09T12:13:59;10.65;;;2.70;;
74626;SDS011;63132;52.268;5.192;2022-09-09T12:16:30;8.70;;;2.70;;
74626;SDS011;63132;52.268;5.192;2022-09-09T12:24:14;7.28;;;2.60;;
74626;SDS011;63132;52.268;5.192;2022-09-09T12:32:10;8.90;;;2.63;;
74626;SDS011;63132;52.268;5.192;2022-09-09T12:37:51;7.47;;;2.30;;
74626;SDS011;63132;52.268;5.192;2022-09-09T12:40:29;8.73;;;2.60;;
74626;SDS011;63132;52.268;5.192;2022-09-09T12:42:57;8.05;;;2.45;;
74626;SDS011;63132;52.268;5.192;2022-09-09T12:45:26;7.70;;;2.88;;
74626;SDS011;63132;52.268;5.192;2022-09-09T12:50:50;8.07;;;2.93;;
74626;SDS011;63132;52.268;5.192;2022-09-09T12:56:03;8.48;;;2.95;;
74626;SDS011;63132;52.268;5.192;2022-09-09T12:58:32;8.68;;;3.20;;
74626;SDS011;63132;52.268;5.192;2022-09-09T13:00:58;9.68;;;2.97;;
74626;SDS011;63132;52.268;5.192;2022-09-09T13:03:25;7.20;;;2.70;;
74626;SDS011;63132;52.268;5.192;2022-09-09T13:05:51;8.73;;;2.60;;
74626;SDS011;63132;52.268;5.192;2022-09-09T13:08:18;10.70;;;2.97;;
74626;SDS011;63132;52.268;5.192;2022-09-09T13:13:14;8.15;;;2.80;;
74626;SDS011;63132;52.268;5.192;2022-09-09T13:15:47;6.38;;;2.50;;
74626;SDS011;63132;52.268;5.192;2022-09-09T13:18:14;8.85;;;2.75;;
74626;SDS011;63132;52.268;5.192;2022-09-09T13:20:45;7.43;;;2.70;;
74626;SDS011;63132;52.268;5.192;2022-09-09T13:23:13;8.98;;;2.55;;
74626;SDS011;63132;52.268;5.192;2022-09-09T13:25:40;7.63;;;2.42;;
74626;SDS011;63132;52.268;5.192;2022-09-09T13:28:20;9.03;;;2.63;;
74626;SDS011;63132;52.268;5.192;2022-09-09T13:30:55;6.07;;;2.50;;
74626;SDS011;63132;52.268;5.192;2022-09-09T13:33:28;11.00;;;3.42;;
74626;SDS011;63132;52.268;5.192;2022-09-09T13:36:06;8.87;;;2.73;;
74626;SDS011;63132;52.268;5.192;2022-09-09T13:38:40;8.20;;;2.72;;
74626;SDS011;63132;52.268;5.192;2022-09-09T13:41:20;7.68;;;2.60;;
74626;SDS011;63132;52.268;5.192;2022-09-09T13:43:48;6.38;;;2.50;;
74626;SDS011;63132;52.268;5.192;2022-09-09T13:46:34;9.15;;;2.70;;
74626;SDS011;63132;52.268;5.192;2022-09-09T13:51:37;7.07;;;2.70;;
74626;SDS011;63132;52.268;5.192;2022-09-09T13:54:04;7.40;;;2.47;;
74626;SDS011;63132;52.268;5.192;2022-09-09T13:56:34;7.53;;;2.40;;
74626;SDS011;63132;52.268;5.192;2022-09-09T13:59:00;5.35;;;2.53;;
74626;SDS011;63132;52.268;5.192;2022-09-09T14:01:26;7.45;;;2.55;;
74626;SDS011;63132;52.268;5.192;2022-09-09T14:03:52;8.52;;;2.53;;
74626;SDS011;63132;52.268;5.192;2022-09-09T14:06:18;7.28;;;2.38;;
74626;SDS011;63132;52.268;5.192;2022-09-09T14:08:44;6.80;;;2.30;;
74626;SDS011;63132;52.268;5.192;2022-09-09T14:11:11;8.10;;;2.42;;
74626;SDS011;63132;52.268;5.192;2022-09-09T14:13:37;6.93;;;2.15;;
74626;SDS011;63132;52.268;5.192;2022-09-09T14:16:03;9.17;;;2.60;;
74626;SDS011;63132;52.268;5.192;2022-09-09T14:18:28;7.35;;;2.58;;
74626;SDS011;63132;52.268;5.192;2022-09-09T14:20:54;6.07;;;2.23;;
74626;SDS011;63132;52.268;5.192;2022-09-09T14:23:19;5.28;;;2.03;;
74626;SDS011;63132;52.268;5.192;2022-09-09T14:25:46;7.82;;;2.28;;
74626;SDS011;63132;52.268;5.192;2022-09-09T14:28:12;8.00;;;2.60;;
74626;SDS011;63132;52.268;5.192;2022-09-09T14:30:39;6.43;;;2.60;;
74626;SDS011;63132;52.268;5.192;2022-09-09T14:33:06;6.50;;;2.33;;
74626;SDS011;63132;52.268;5.192;2022-09-09T14:35:34;7.15;;;2.20;;
74626;SDS011;63132;52.268;5.192;2022-09-09T14:37:59;7.63;;;2.27;;
74626;SDS011;63132;52.268;5.192;2022-09-09T14:40:26;8.65;;;2.28;;
74626;SDS011;63132;52.268;5.192;2022-09-09T14:42:52;7.35;;;2.42;;
74626;SDS011;63132;52.268;5.192;2022-09-09T14:45:17;6.43;;;2.50;;
74626;SDS011;63132;52.268;5.192;2022-09-09T14:47:43;6.30;;;2.23;;
74626;SDS011;63132;52.268;5.192;2022-09-09T14:50:08;6.47;;;2.23;;
74626;SDS011;63132;52.268;5.192;2022-09-09T14:52:34;8.23;;;2.03;;
74626;SDS011;63132;52.268;5.192;2022-09-09T14:54:59;8.27;;;2.10;;
74626;SDS011;63132;52.268;5.192;2022-09-09T14:57:25;5.80;;;2.00;;
74626;SDS011;63132;52.268;5.192;2022-09-09T14:59:50;6.17;;;2.13;;
74626;SDS011;63132;52.268;5.192;2022-09-09T15:02:15;6.37;;;2.03;;
74626;SDS011;63132;52.268;5.192;2022-09-09T15:04:41;7.87;;;2.20;;
74626;SDS011;63132;52.268;5.192;2022-09-09T15:07:07;6.70;;;2.10;;
74626;SDS011;63132;52.268;5.192;2022-09-09T15:09:32;6.57;;;2.20;;
74626;SDS011;63132;52.268;5.192;2022-09-09T15:11:57;5.88;;;2.30;;
74626;SDS011;63132;52.268;5.192;2022-09-09T15:14:23;7.50;;;2.37;;
74626;SDS011;63132;52.268;5.192;2022-09-09T15:16:48;6.07;;;2.10;;
74626;SDS011;63132;52.268;5.192;2022-09-09T15:19:14;9.97;;;2.30;;
74626;SDS011;63132;52.268;5.192;2022-09-09T15:21:39;4.97;;;1.50;;
74626;SDS011;63132;52.268;5.192;2022-09-09T15:24:05;3.30;;;0.80;;
74626;SDS011;63132;52.268;5.192;2022-09-09T15:26:33;2.00;;;0.90;;
74626;SDS011;63132;52.268;5.192;2022-09-09T15:28:58;6.37;;;0.97;;
74626;SDS011;63132;52.268;5.192;2022-09-09T15:31:28;4.38;;;0.98;;
74626;SDS011;63132;52.268;5.192;2022-09-09T15:33:59;3.47;;;0.90;;
74626;SDS011;63132;52.268;5.192;2022-09-09T15:36:34;3.53;;;0.80;;
74626;SDS011;63132;52.268;5.192;2022-09-09T15:39:05;3.15;;;0.95;;
74626;SDS011;63132;52.268;5.192;2022-09-09T15:41:32;5.77;;;1.20;;
74626;SDS011;63132;52.268;5.192;2022-09-09T15:43:58;4.07;;;1.30;;
74626;SDS011;63132;52.268;5.192;2022-09-09T15:49:04;5.20;;;1.40;;
74626;SDS011;63132;52.268;5.192;2022-09-09T15:51:31;4.85;;;1.45;;
74626;SDS011;63132;52.268;5.192;2022-09-09T15:53:58;4.05;;;1.50;;
74626;SDS011;63132;52.268;5.192;2022-09-09T15:56:24;6.53;;;1.80;;
74626;SDS011;63132;52.268;5.192;2022-09-09T15:58:52;5.68;;;1.63;;
74626;SDS011;63132;52.268;5.192;2022-09-09T16:01:19;6.00;;;1.75;;
74626;SDS011;63132;52.268;5.192;2022-09-09T16:03:44;7.60;;;2.00;;
74626;SDS011;63132;52.268;5.192;2022-09-09T16:06:15;8.13;;;1.98;;
74626;SDS011;63132;52.268;5.192;2022-09-09T16:08:42;5.30;;;1.63;;
74626;SDS011;63132;52.268;5.192;2022-09-09T16:11:11;8.38;;;1.92;;
74626;SDS011;63132;52.268;5.192;2022-09-09T16:13:44;5.03;;;1.48;;
74626;SDS011;63132;52.268;5.192;2022-09-09T16:16:12;5.38;;;1.75;;
74626;SDS011;63132;52.268;5.192;2022-09-09T16:18:43;4.43;;;1.57;;
74626;SDS011;63132;52.268;5.192;2022-09-09T16:21:44;4.97;;;1.77;;
74626;SDS011;63132;52.268;5.192;2022-09-09T16:24:05;5.28;;;1.38;;
74626;SDS011;63132;52.268;5.192;2022-09-09T16:26:32;5.47;;;1.83;;
74626;SDS011;63132;52.268;5.192;2022-09-09T16:28:58;6.05;;;1.58;;
74626;SDS011;63132;52.268;5.192;2022-09-09T16:31:25;7.80;;;1.73;;
74626;SDS011;63132;52.268;5.192;2022-09-09T16:33:52;6.72;;;1.67;;
74626;SDS011;63132;52.268;5.192;2022-09-09T16:36:20;6.88;;;1.60;;
74626;SDS011;63132;52.268;5.192;2022-09-09T16:38:51;4.95;;;1.60;;
74626;SDS011;63132;52.268;5.192;2022-09-09T16:41:22;6.45;;;1.85;;
74626;SDS011;63132;52.268;5.192;2022-09-09T16:43:52;5.40;;;1.88;;
74626;SDS011;63132;52.268;5.192;2022-09-09T16:46:19;5.65;;;1.63;;
74626;SDS011;63132;52.268;5.192;2022-09-09T16:48:45;6.45;;;1.60;;
74626;SDS011;63132;52.268;5.192;2022-09-09T16:51:13;6.53;;;1.70;;
74626;SDS011;63132;52.268;5.192;2022-09-09T16:53:42;5.13;;;1.63;;
74626;SDS011;63132;52.268;5.192;2022-09-09T16:56:15;5.50;;;1.60;;
74626;SDS011;63132;52.268;5.192;2022-09-09T16:58:42;5.70;;;1.75;;
74626;SDS011;63132;52.268;5.192;2022-09-09T17:01:08;5.55;;;1.60;;
74626;SDS011;63132;52.268;5.192;2022-09-09T17:03:36;5.27;;;1.50;;
74626;SDS011;63132;52.268;5.192;2022-09-09T17:06:02;6.45;;;1.73;;
74626;SDS011;63132;52.268;5.192;2022-09-09T17:08:31;6.97;;;1.95;;
74626;SDS011;63132;52.268;5.192;2022-09-09T17:10:58;7.10;;;1.85;;